Time;durP1;ratioP1;P1;durP2;ratioP2;P2;SDS_P1;SDS_P2;PMS_P1;PMS_P2;Temp;Humidity;BMP_temperature;BMP_pressure;BME280_temperature;BME280_humidity;BME280_pressure;Samples;Min_cycle;Max_cycle;Signal;HPM_P1;HPM_P2
2022/07/23 00:00:20;;;;;;;6.35;4.72;;;;;;;18.32;65.96;100653.96;1752832;81;20980;-75
2022/07/23 00:02:49;;;;;;;6.30;4.85;;;;;;;18.28;66.15;100644.03;1752787;81;20996;-75
2022/07/23 00:05:16;;;;;;;5.17;4.67;;;;;;;18.24;66.37;100647.37;1752755;81;21012;-75
2022/07/23 00:07:43;;;;;;;6.55;5.47;;;;;;;18.21;66.53;100648.90;1753123;81;21035;-75
2022/07/23 00:10:11;;;;;;;7.75;5.15;;;;;;;18.18;66.76;100652.20;1752908;81;21052;-75
2022/07/23 00:12:39;;;;;;;8.13;5.00;;;;;;;18.18;66.84;100652.20;1752960;81;21020;-75
2022/07/23 00:15:08;;;;;;;5.55;5.05;;;;;;;18.19;66.94;100648.62;1752659;81;21931;-75
2022/07/23 00:17:35;;;;;;;6.08;5.12;;;;;;;18.16;66.97;100651.00;1753035;81;21080;-75
2022/07/23 00:20:02;;;;;;;5.72;5.22;;;;;;;18.15;66.99;100649.75;1752712;81;21032;-75
2022/07/23 00:22:29;;;;;;;5.92;5.42;;;;;;;18.15;67.15;100649.75;1753012;81;20985;-75
2022/07/23 00:24:57;;;;;;;5.85;5.08;;;;;;;18.18;67.42;100651.75;1752762;81;21038;-75
2022/07/23 00:27:24;;;;;;;7.83;5.37;;;;;;;18.23;67.42;100657.59;1752981;81;22162;-75
2022/07/23 00:29:52;;;;;;;6.03;5.42;;;;;;;18.24;67.32;100654.00;1752673;81;21024;-75
2022/07/23 00:32:18;;;;;;;7.30;5.65;;;;;;;18.21;67.11;100664.82;1752974;81;21027;-75
2022/07/23 00:34:45;;;;;;;7.03;5.65;;;;;;;18.16;67.10;100670.89;1732669;81;21065;-75
2022/07/23 00:37:12;;;;;;;5.60;4.95;;;;;;;18.17;67.23;100669.09;1751293;81;21036;-77
2022/07/23 00:39:39;;;;;;;6.15;5.00;;;;;;;18.15;67.27;100668.33;1752774;81;21119;-75
2022/07/23 00:42:06;;;;;;;5.70;5.20;;;;;;;18.12;67.19;100661.41;1757718;80;21087;-75
2022/07/23 00:44:33;;;;;;;6.83;5.12;;;;;;;18.10;67.40;100659.84;1762082;81;20908;-75
2022/07/23 00:47:00;;;;;;;5.90;5.35;;;;;;;18.11;67.56;100655.74;1762094;81;21242;-75
2022/07/23 00:49:30;;;;;;;6.12;5.60;;;;;;;18.14;67.77;100655.54;1762359;81;21004;-75
2022/07/23 00:51:59;;;;;;;6.17;5.58;;;;;;;18.13;67.70;100656.50;1746750;81;21074;-75
2022/07/23 00:54:28;;;;;;;5.75;5.20;;;;;;;18.09;67.54;100658.95;1757610;81;21079;-75
2022/07/23 00:56:55;;;;;;;7.30;5.53;;;;;;;18.04;67.64;100660.61;1762107;81;21051;-75
2022/07/23 00:59:22;;;;;;;5.65;5.15;;;;;;;18.00;67.81;100660.89;1762580;81;21036;-75
2022/07/23 01:01:50;;;;;;;5.92;5.35;;;;;;;17.99;67.94;100660.04;1762352;81;20996;-75
2022/07/23 01:04:17;;;;;;;6.42;5.45;;;;;;;17.96;67.97;100664.70;1745274;81;21482;-75
2022/07/23 01:06:45;;;;;;;7.65;5.80;;;;;;;17.91;67.96;100663.66;1762285;81;20993;-75
2022/07/23 01:09:13;;;;;;;5.62;5.03;;;;;;;17.83;68.08;100656.66;1762632;81;21079;-76
2022/07/23 01:11:42;;;;;;;8.15;6.35;;;;;;;17.81;68.27;100658.06;1750073;81;21478;-75
2022/07/23 01:14:13;;;;;;;6.25;5.65;;;;;;;17.81;68.61;100655.89;1762666;81;21005;-75
2022/07/23 01:16:42;;;;;;;7.25;6.35;;;;;;;17.83;68.71;100652.68;1758981;81;21862;-75
2022/07/23 01:19:10;;;;;;;5.97;5.37;;;;;;;17.83;68.86;100650.87;1745063;81;21007;-75
2022/07/23 01:21:44;;;;;;;6.50;5.78;;;;;;;17.79;68.83;100646.73;1755467;81;20984;-75
2022/07/23 01:24:12;;;;;;;6.83;5.60;;;;;;;17.76;68.94;100646.89;1746831;81;21024;-75
2022/07/23 01:26:44;;;;;;;6.08;5.47;;;;;;;17.74;69.11;100648.78;1740389;81;21560;-75
2022/07/23 01:29:11;;;;;;;;;;;;;;;17.73;69.24;100648.38;1765216;81;22032;-75
2022/07/23 01:31:39;;;;;;;6.83;5.97;;;;;;;17.70;69.56;100645.08;1760849;81;20155;-75
2022/07/23 01:34:07;;;;;;;6.25;5.65;;;;;;;17.65;69.39;100633.91;1743247;81;21035;-75
2022/07/23 01:36:35;;;;;;;7.35;5.90;;;;;;;17.64;69.46;100638.84;1750405;81;21026;-75
2022/07/23 01:39:05;;;;;;;6.35;5.75;;;;;;;17.60;69.60;100645.67;1741540;81;21028;-75
2022/07/23 01:41:32;;;;;;;7.55;5.97;;;;;;;17.60;69.65;100643.02;1755199;81;21111;-75
2022/07/23 01:44:00;;;;;;;6.37;5.78;;;;;;;17.58;69.68;100629.00;1757140;81;20997;-75
2022/07/23 01:46:27;;;;;;;6.67;5.72;;;;;;;17.55;69.72;100627.88;1750875;81;21004;-75
2022/07/23 01:48:54;;;;;;;7.53;6.60;;;;;;;17.52;69.86;100632.05;1742400;81;21055;-75
2022/07/23 01:51:59;;;;;;;6.80;6.10;;;;;;;17.52;70.07;100640.47;1750703;81;20989;-75
2022/07/23 01:54:10;;;;;;;8.55;6.35;;;;;;;17.51;70.11;100634.77;1759321;81;22023;-75
2022/07/23 01:56:38;;;;;;;6.78;6.10;;;;;;;17.49;70.19;100631.39;1716863;81;20977;-75
2022/07/23 01:59:05;;;;;;;6.55;5.95;;;;;;;17.44;70.12;100622.88;1742989;81;21016;-75
2022/07/23 02:01:32;;;;;;;7.08;6.20;;;;;;;17.42;70.39;100628.25;1740971;81;21047;-75
2022/07/23 02:04:00;;;;;;;10.32;5.85;;;;;;;17.41;70.64;100617.77;1732184;81;21568;-75
2022/07/23 02:06:27;;;;;;;7.17;6.45;;;;;;;17.39;70.70;100618.69;1737352;81;21502;-75
2022/07/23 02:08:54;;;;;;;7.10;6.40;;;;;;;17.37;70.78;100612.63;1753918;81;21556;-75
2022/07/23 02:11:22;;;;;;;6.53;5.83;;;;;;;17.35;70.96;100607.92;1757123;81;21035;-75
2022/07/23 02:13:49;;;;;;;7.45;6.03;;;;;;;17.35;71.13;100607.92;1752363;81;20981;-75
2022/07/23 02:16:16;;;;;;;9.35;6.60;;;;;;;17.28;71.57;100611.88;1762329;81;21040;-75
2022/07/23 02:18:44;;;;;;;8.23;6.50;;;;;;;17.28;71.57;100611.88;1752267;81;21915;-75
2022/07/23 02:21:11;;;;;;;7.62;6.28;;;;;;;17.27;71.60;100614.16;1751433;81;21016;-75
2022/07/23 02:23:38;;;;;;;8.08;6.67;;;;;;;17.24;71.66;100613.52;1750159;81;21047;-75
2022/07/23 02:26:05;;;;;;;6.58;5.90;;;;;;;17.22;71.90;100620.69;1762347;81;21024;-75
2022/07/23 02:28:33;;;;;;;8.53;6.30;;;;;;;17.20;71.98;100616.80;1770380;81;21389;-75
2022/07/23 02:31:00;;;;;;;6.78;6.10;;;;;;;17.17;72.07;100621.81;1762248;81;21113;-75
2022/07/23 02:33:28;;;;;;;7.53;6.72;;;;;;;17.16;72.17;100617.47;1762034;81;21474;-75
2022/07/23 02:35:55;;;;;;;7.53;6.62;;;;;;;17.17;72.24;100619.64;1761247;81;21011;-75
2022/07/23 02:38:23;;;;;;;8.70;6.72;;;;;;;17.13;72.07;100616.81;1749910;81;21046;-75
2022/07/23 02:40:50;;;;;;;7.87;7.10;;;;;;;17.09;72.21;100605.53;1759383;81;21162;-75
2022/07/23 02:43:18;;;;;;;7.05;6.45;;;;;;;17.07;72.34;100607.45;1755272;81;21847;-75
2022/07/23 02:45:46;;;;;;;7.28;6.53;;;;;;;17.02;72.28;100600.72;1752693;81;20910;-75
2022/07/23 02:48:13;;;;;;;10.23;7.08;;;;;;;16.98;72.20;100605.33;1741519;81;21426;-75
2022/07/23 02:50:42;;;;;;;7.87;7.08;;;;;;;16.93;72.36;100605.63;1744075;81;21528;-75
2022/07/23 02:53:11;;;;;;;7.78;7.03;;;;;;;16.93;72.65;100607.40;1737159;81;20992;-75
2022/07/23 02:55:39;;;;;;;7.90;6.80;;;;;;;16.93;72.80;100599.45;1750898;81;21121;-75
2022/07/23 02:58:06;;;;;;;8.08;6.72;;;;;;;16.94;72.87;100599.86;1781486;80;21110;-75
2022/07/23 03:00:33;;;;;;;7.40;6.70;;;;;;;16.92;73.03;100587.17;1732424;81;21044;-75
2022/07/23 03:03:00;;;;;;;7.05;6.35;;;;;;;16.98;73.00;100603.16;1744317;81;21648;-75
2022/07/23 03:05:27;;;;;;;10.40;6.70;;;;;;;16.97;73.10;100612.06;1760209;80;21012;-75
2022/07/23 03:07:54;;;;;;;8.35;7.42;;;;;;;16.93;73.21;100614.90;1727538;81;21117;-75
2022/07/23 03:10:21;;;;;;;7.80;6.78;;;;;;;16.94;73.55;100615.74;1784852;80;21046;-75
2022/07/23 03:12:48;;;;;;;7.97;7.22;;;;;;;16.93;73.66;100617.55;1725792;81;21070;-75
2022/07/23 03:15:15;;;;;;;7.72;7.00;;;;;;;16.97;73.79;100619.53;1748286;81;21074;-75
2022/07/23 03:17:42;;;;;;;9.95;7.03;;;;;;;16.98;73.94;100614.60;1757061;81;21046;-75
2022/07/23 03:20:10;;;;;;;8.20;7.20;;;;;;;17.01;73.89;100603.81;1757348;81;21114;-75
2022/07/23 03:22:39;;;;;;;9.90;6.62;;;;;;;17.02;74.01;100600.25;1770043;80;21285;-75
2022/07/23 03:25:08;;;;;;;7.15;6.45;;;;;;;17.02;74.00;100607.34;1728251;81;22072;-75
2022/07/23 03:27:35;;;;;;;7.08;6.40;;;;;;;17.00;74.17;100607.90;1763671;81;21048;-75
2022/07/23 03:30:03;;;;;;;11.25;7.10;;;;;;;16.99;74.13;100607.05;1752747;81;21050;-75
2022/07/23 03:32:31;;;;;;;9.35;7.37;;;;;;;16.97;74.13;100603.64;1756920;81;21124;-75
2022/07/23 03:34:58;;;;;;;7.58;6.87;;;;;;;16.95;74.21;100604.20;1757265;81;21083;-75
2022/07/23 03:37:26;;;;;;;8.50;7.20;;;;;;;16.95;74.27;100604.20;1756919;81;21054;-75
2022/07/23 03:39:53;;;;;;;8.38;7.58;;;;;;;16.94;74.35;100607.33;1755448;81;21025;-75
2022/07/23 03:42:20;;;;;;;8.15;7.35;;;;;;;16.95;74.45;100603.72;1751344;80;21052;-75
2022/07/23 03:44:47;;;;;;;8.23;7.37;;;;;;;16.99;74.52;100604.41;1760299;81;21116;-75
2022/07/23 03:47:16;;;;;;;7.80;7.00;;;;;;;17.00;74.40;100603.45;1768450;81;21567;-75
2022/07/23 03:49:44;;;;;;;9.43;7.37;;;;;;;16.99;74.38;100602.20;1768516;81;21046;-75
2022/07/23 03:52:11;;;;;;;9.83;7.75;;;;;;;16.97;74.39;100602.80;1768527;81;21536;-77
2022/07/23 03:54:38;;;;;;;8.33;7.12;;;;;;;16.95;74.49;100602.87;1768419;81;21106;-76
2022/07/23 03:57:05;;;;;;;8.70;7.90;;;;;;;16.96;74.75;100601.95;1765288;81;21527;-75
2022/07/23 03:59:32;;;;;;;8.30;7.50;;;;;;;16.98;74.91;100608.45;1764701;81;21102;-75
2022/07/23 04:01:59;;;;;;;8.75;7.85;;;;;;;16.91;74.75;100605.34;1768461;81;21448;-75
2022/07/23 04:04:26;;;;;;;8.50;7.70;;;;;;;16.99;75.33;100607.05;1768426;81;21543;-75
2022/07/23 04:06:53;;;;;;;12.45;8.08;;;;;;;16.99;75.33;100607.05;1767688;81;21413;-75
2022/07/23 04:09:20;;;;;;;9.38;8.35;;;;;;;17.04;75.22;100616.87;1749987;81;21127;-76
2022/07/23 04:11:47;;;;;;;8.38;7.58;;;;;;;17.07;75.35;100614.52;1760117;81;22112;-76
2022/07/23 04:14:15;;;;;;;8.43;7.62;;;;;;;17.11;75.51;100608.95;1761887;81;21028;-76
2022/07/23 04:16:42;;;;;;;8.75;7.95;;;;;;;17.17;75.62;100589.17;1768653;81;21054;-76
2022/07/23 04:19:10;;;;;;;9.03;8.08;;;;;;;17.21;75.56;100596.01;1713422;82;21062;-76
2022/07/23 04:21:39;;;;;;;8.75;7.95;;;;;;;17.32;75.86;100590.02;1754288;81;21064;-76
2022/07/23 04:24:07;;;;;;;8.40;7.60;;;;;;;17.41;75.88;100591.27;1768390;81;21026;-76
2022/07/23 04:26:34;;;;;;;9.20;8.33;;;;;;;17.46;76.03;100587.38;1768684;81;21034;-76
2022/07/23 04:29:00;;;;;;;9.43;7.83;;;;;;;17.54;76.20;100585.55;1767359;81;21123;-76
2022/07/23 04:31:27;;;;;;;9.43;8.45;;;;;;;17.60;76.26;100583.38;1763189;81;20984;-76
2022/07/23 04:33:55;;;;;;;9.25;7.90;;;;;;;17.69;76.41;100584.59;1768312;81;21119;-86
2022/07/23 04:36:22;;;;;;;9.05;8.15;;;;;;;17.75;76.56;100576.23;1765874;81;21294;-82
2022/07/23 04:38:49;;;;;;;9.10;8.08;;;;;;;17.85;76.66;100571.25;1720078;81;21042;-83
2022/07/23 04:41:16;;;;;;;8.70;7.80;;;;;;;17.93;76.62;100567.62;1765753;81;21432;-80
2022/07/23 04:43:46;;;;;;;9.65;7.55;;;;;;;18.01;76.71;100567.09;1766079;79;21022;-83
2022/07/23 04:46:13;;;;;;;;;;;;;;;18.09;76.88;100564.80;1767261;81;21850;-79
2022/07/23 04:48:42;;;;;;;10.65;7.87;;;;;;;18.17;77.11;100561.16;1765955;80;20208;-83
2022/07/23 04:51:10;;;;;;;8.75;7.87;;;;;;;18.24;76.97;100550.53;1726666;81;20996;-83
2022/07/23 04:53:39;;;;;;;9.55;7.95;;;;;;;18.34;77.04;100544.59;1763439;81;21040;-83
2022/07/23 04:56:07;;;;;;;9.33;8.43;;;;;;;18.42;77.08;100533.84;1765779;81;21058;-82
2022/07/23 04:58:34;;;;;;;9.08;8.15;;;;;;;18.50;76.91;100528.02;1762999;81;21120;-81
2022/07/23 05:01:01;;;;;;;8.83;8.03;;;;;;;18.56;76.80;100522.77;1765473;81;21520;-80
2022/07/23 05:03:28;;;;;;;9.70;8.13;;;;;;;18.62;76.71;100517.02;1764372;80;21019;-83
2022/07/23 05:05:55;;;;;;;10.03;7.80;;;;;;;18.71;76.42;100515.93;1764974;81;21026;-84
2022/07/23 05:08:22;;;;;;;9.63;8.48;;;;;;;18.79;76.42;100510.58;1763030;81;21034;-83
2022/07/23 05:10:54;;;;;;;9.93;8.80;;;;;;;18.86;76.16;100506.55;1762944;80;21125;-82
2022/07/23 05:13:21;;;;;;;10.18;8.95;;;;;;;18.92;76.02;100500.31;1766374;81;21015;-76
2022/07/23 05:15:49;;;;;;;10.30;8.98;;;;;;;19.02;75.96;100497.03;1762863;80;20984;-83
2022/07/23 05:18:16;;;;;;;9.98;8.98;;;;;;;19.08;75.61;100495.27;1766131;81;21027;-80
2022/07/23 05:20:44;;;;;;;9.20;8.40;;;;;;;19.13;75.39;100495.31;1763135;81;21041;-77
2022/07/23 05:23:12;;;;;;;9.93;8.93;;;;;;;19.20;75.37;100490.88;1764368;79;21119;-80
2022/07/23 05:25:41;;;;;;;9.88;8.95;;;;;;;19.26;74.94;100489.10;1763613;81;21087;-83
2022/07/23 05:28:08;;;;;;;9.68;8.78;;;;;;;19.32;74.81;100490.86;1764349;79;21011;-83
2022/07/23 05:30:35;;;;;;;11.38;9.38;;;;;;;19.41;74.81;100489.34;1765654;81;21047;-82
2022/07/23 05:33:04;;;;;;;10.15;9.15;;;;;;;19.49;74.38;100486.13;1763512;80;21017;-84
2022/07/23 05:35:31;;;;;;;11.33;10.32;;;;;;;19.57;74.37;100481.95;1766289;81;22007;-80
2022/07/23 05:38:05;;;;;;;11.33;10.10;;;;;;;19.69;74.12;100484.20;1761108;79;21058;-81
2022/07/23 05:40:34;;;;;;;12.70;9.70;;;;;;;19.77;73.84;100481.83;1764019;80;21079;-82
2022/07/23 05:43:01;;;;;;;11.53;9.73;;;;;;;19.88;73.47;100485.03;1735666;81;21027;-80
2022/07/23 05:45:28;;;;;;;10.30;9.33;;;;;;;19.98;73.19;100486.50;1764607;80;21098;-75
2022/07/23 05:47:55;;;;;;;12.47;9.75;;;;;;;20.07;72.86;100488.98;1766908;80;21564;-80
2022/07/23 05:50:24;;;;;;;11.33;10.10;;;;;;;20.17;72.64;100489.47;1761729;80;22382;-74
2022/07/23 05:52:53;;;;;;;9.93;8.93;;;;;;;20.27;72.46;100491.81;1729959;81;21031;-77
2022/07/23 05:55:28;;;;;;;11.65;9.35;;;;;;;20.39;72.29;100491.83;1751393;81;21055;-77
2022/07/23 05:57:56;;;;;;;12.68;9.78;;;;;;;20.52;72.10;100479.77;1752739;81;21099;-75
2022/07/23 06:00:25;;;;;;;10.70;9.60;;;;;;;20.65;71.83;100473.41;1752456;81;21181;-76
2022/07/23 06:02:52;;;;;;;9.08;8.20;;;;;;;20.80;71.61;100472.67;1754282;81;21497;-73
2022/07/23 06:05:19;;;;;;;11.20;8.78;;;;;;;20.95;71.49;100470.63;1747680;81;21028;-77
2022/07/23 06:07:46;;;;;;;9.93;8.50;;;;;;;21.09;71.22;100475.70;1755807;81;21291;-73
2022/07/23 06:10:14;;;;;;;9.13;8.18;;;;;;;21.25;71.13;100483.79;1757856;81;21636;-73
2022/07/23 06:12:41;;;;;;;9.23;8.33;;;;;;;21.43;70.86;100480.17;1753232;81;21115;-74
2022/07/23 06:15:10;;;;;;;11.25;8.30;;;;;;;21.59;70.51;100479.28;1752238;80;21039;-72
2022/07/23 06:17:39;;;;;;;8.77;7.87;;;;;;;21.73;70.32;100470.14;1748207;81;21028;-73
2022/07/23 06:20:08;;;;;;;8.83;7.93;;;;;;;21.84;69.93;100468.77;1753019;81;21004;-73
2022/07/23 06:22:37;;;;;;;9.03;8.13;;;;;;;21.94;69.63;100471.50;1751610;81;21059;-73
2022/07/23 06:25:06;;;;;;;8.85;8.05;;;;;;;22.01;69.39;100456.67;1759321;81;21147;-74
2022/07/23 06:27:33;;;;;;;8.38;7.53;;;;;;;22.06;69.23;100453.14;1749896;81;21040;-78
2022/07/23 06:30:01;;;;;;;9.13;7.47;;;;;;;22.15;68.97;100453.68;1754226;81;21560;-75
2022/07/23 06:32:28;;;;;;;9.18;7.90;;;;;;;22.22;68.60;100449.53;1755733;81;21070;-79
2022/07/23 06:34:55;;;;;;;8.28;7.47;;;;;;;22.32;68.35;100444.76;1754071;81;21075;-79
2022/07/23 06:37:22;;;;;;;8.50;7.67;;;;;;;22.41;68.23;100440.80;1753563;81;21179;-77
2022/07/23 06:39:49;;;;;;;7.50;6.78;;;;;;;22.51;67.77;100437.34;1755702;80;21506;-76
2022/07/23 06:42:16;;;;;;;8.58;7.65;;;;;;;22.59;67.56;100432.19;1754015;81;21106;-77
2022/07/23 06:44:44;;;;;;;8.10;7.28;;;;;;;22.66;67.13;100436.00;1749463;80;21048;-77
2022/07/23 06:47:11;;;;;;;10.23;7.90;;;;;;;22.74;66.89;100435.34;1758548;80;21061;-80
2022/07/23 06:49:40;;;;;;;8.98;8.18;;;;;;;22.80;66.79;100432.95;1765760;80;21898;-80
2022/07/23 06:52:08;;;;;;;8.98;8.05;;;;;;;22.90;66.35;100435.19;1750211;80;21075;-80
2022/07/23 06:54:35;;;;;;;8.48;6.87;;;;;;;22.98;66.05;100434.55;1776357;80;21113;-81
2022/07/23 06:57:03;;;;;;;8.60;7.70;;;;;;;23.05;65.81;100435.67;1776796;80;21042;-78
2022/07/23 06:59:30;;;;;;;7.95;7.22;;;;;;;23.11;65.41;100429.80;1761076;80;21113;-79
2022/07/23 07:01:58;;;;;;;8.13;7.37;;;;;;;23.19;65.16;100428.26;1754712;81;21138;-84
2022/07/23 07:04:24;;;;;;;9.45;6.58;;;;;;;23.28;65.00;100428.76;1767887;81;20955;-81
2022/07/23 07:06:51;;;;;;;7.47;6.83;;;;;;;23.38;64.82;100420.27;1754670;81;21381;-76
2022/07/23 07:09:18;;;;;;;8.23;7.22;;;;;;;23.49;64.66;100421.47;1762877;81;21047;-77
2022/07/23 07:11:45;;;;;;;9.03;7.12;;;;;;;23.65;64.58;100418.75;1764275;80;21070;-79
2022/07/23 07:14:12;;;;;;;8.18;7.40;;;;;;;23.80;64.24;100421.37;1764951;80;21163;-80
2022/07/23 07:16:39;;;;;;;9.38;6.70;;;;;;;23.91;63.73;100416.36;1766378;80;21024;-80
2022/07/23 07:19:06;;;;;;;8.50;7.10;;;;;;;24.03;63.70;100414.73;1762780;80;21039;-78
2022/07/23 07:21:33;;;;;;;7.58;6.87;;;;;;;24.21;63.63;100416.17;1762484;80;21047;-78
2022/07/23 07:24:00;;;;;;;9.13;6.92;;;;;;;24.36;63.02;100423.27;1769422;80;21610;-78
2022/07/23 07:26:28;;;;;;;8.08;7.00;;;;;;;24.48;62.68;100416.77;1768869;80;39939;-78
2022/07/23 07:28:54;;;;;;;8.03;6.92;;;;;;;24.63;62.66;100409.58;1766499;80;21087;-87
2022/07/23 07:31:21;;;;;;;8.58;7.00;;;;;;;24.71;62.48;100402.98;1763657;80;20982;-79
2022/07/23 07:33:48;;;;;;;7.95;6.72;;;;;;;24.81;62.17;100409.66;1763063;80;21532;-78
2022/07/23 07:36:15;;;;;;;7.80;7.00;;;;;;;24.91;61.85;100417.14;1762743;80;21062;-79
2022/07/23 07:38:42;;;;;;;9.18;7.12;;;;;;;24.97;61.42;100420.58;1763525;80;21958;-79
2022/07/23 07:41:10;;;;;;;6.95;6.25;;;;;;;25.02;60.98;100417.44;1763640;80;21105;-79
2022/07/23 07:43:37;;;;;;;7.15;6.42;;;;;;;25.07;60.75;100426.72;1767460;79;21086;-78
2022/07/23 07:46:09;;;;;;;7.17;6.58;;;;;;;25.11;60.62;100426.78;1762412;79;21091;-79
2022/07/23 07:48:35;;;;;;;12.90;6.90;;;;;;;25.15;60.39;100438.91;1765877;79;21903;-79
2022/07/23 07:51:02;;;;;;;7.40;6.72;;;;;;;25.17;59.96;100454.03;1766444;80;21596;-79
2022/07/23 07:53:29;;;;;;;9.70;7.20;;;;;;;25.15;59.76;100466.23;1762912;80;21031;-80
2022/07/23 07:55:56;;;;;;;12.63;7.37;;;;;;;25.14;59.61;100477.94;1763550;80;21058;-79
2022/07/23 07:58:23;;;;;;;8.30;6.65;;;;;;;25.12;59.25;100480.75;1769264;80;20936;-79
2022/07/23 08:00:51;;;;;;;13.35;7.45;;;;;;;25.10;59.08;100499.33;1762603;80;21032;-79
2022/07/23 08:03:18;;;;;;;9.88;7.28;;;;;;;25.06;58.80;100518.06;1763970;80;21281;-79
2022/07/23 08:05:45;;;;;;;8.13;7.15;;;;;;;25.00;58.60;100518.16;1786841;80;21034;-79
2022/07/23 08:08:14;;;;;;;177.95;23.75;;;;;;;24.96;58.58;100497.14;1764115;80;21577;-79
2022/07/23 08:10:41;;;;;;;12.53;7.95;;;;;;;24.91;59.62;100481.48;1784204;80;21065;-79
2022/07/23 08:13:14;;;;;;;16.75;9.20;;;;;;;24.79;60.11;100462.56;1740427;81;21111;-79
2022/07/23 08:15:43;;;;;;;17.52;9.55;;;;;;;24.60;61.50;100460.30;1761747;81;21790;-78
2022/07/23 08:18:10;;;;;;;9.55;8.63;;;;;;;24.30;62.28;100459.98;1760908;81;21063;-78
2022/07/23 08:20:39;;;;;;;10.18;9.10;;;;;;;23.99;63.07;100464.69;1741131;81;20996;-78
2022/07/23 08:23:08;;;;;;;11.45;9.05;;;;;;;23.71;63.73;100471.73;1752821;81;21035;-78
2022/07/23 08:25:39;;;;;;;11.22;10.03;;;;;;;23.51;64.99;100461.48;1749381;81;21007;-79
2022/07/23 08:28:10;;;;;;;11.88;10.68;;;;;;;23.38;66.12;100464.40;1759445;81;21141;-79
2022/07/23 08:30:39;;;;;;;10.40;9.30;;;;;;;23.21;66.78;100457.05;1747196;81;21007;-79
2022/07/23 08:33:11;;;;;;;12.45;9.38;;;;;;;23.11;67.41;100463.69;1760347;81;21046;-78
2022/07/23 08:35:42;;;;;;;11.05;9.95;;;;;;;23.02;67.77;100467.19;1765193;81;21059;-79
2022/07/23 08:38:11;;;;;;;13.03;10.80;;;;;;;22.97;68.28;100467.59;1773784;80;21059;-78
2022/07/23 08:40:40;;;;;;;;;;;;;;;22.94;68.82;100464.66;1776614;80;21723;-77
2022/07/23 08:43:18;;;;;;;14.05;10.85;;;;;;;22.99;69.77;100466.12;1763665;80;20498;-80
2022/07/23 08:45:48;;;;;;;12.25;10.88;;;;;;;23.04;69.87;100470.09;1765872;79;21082;-79
2022/07/23 08:48:24;;;;;;;12.05;10.85;;;;;;;23.10;70.56;100462.85;1762955;80;21055;-79
2022/07/23 08:50:56;;;;;;;11.97;10.78;;;;;;;23.24;71.60;100468.31;1765993;80;21067;-79
2022/07/23 08:53:24;;;;;;;11.50;10.20;;;;;;;23.35;71.75;100474.04;1767492;80;21127;-79
2022/07/23 08:55:55;;;;;;;12.10;9.85;;;;;;;23.46;71.88;100482.44;1770398;80;21488;-79
2022/07/23 08:58:24;;;;;;;11.57;10.25;;;;;;;23.55;71.45;100481.60;1763551;80;21631;-79
2022/07/23 09:00:51;;;;;;;13.25;11.10;;;;;;;23.67;71.62;100483.19;1767016;80;21059;-79
2022/07/23 09:03:31;;;;;;;12.33;10.38;;;;;;;23.80;71.53;100486.44;1761303;80;21529;-79
2022/07/23 09:06:00;;;;;;;11.10;9.93;;;;;;;23.91;71.69;100489.98;1766996;80;21162;-79
2022/07/23 09:08:39;;;;;;;13.15;10.32;;;;;;;24.00;71.44;100479.28;1765590;80;21043;-79
2022/07/23 09:11:16;;;;;;;13.15;10.58;;;;;;;24.14;71.80;100483.36;1765400;80;21054;-79
2022/07/23 09:13:58;;;;;;;14.23;11.38;;;;;;;24.29;71.77;100481.08;1763620;80;21059;-79
2022/07/23 09:16:28;;;;;;;11.65;10.50;;;;;;;24.36;71.84;100480.86;1762189;80;21101;-81
2022/07/23 09:19:02;;;;;;;11.03;10.03;;;;;;;24.42;71.56;100484.80;1763631;80;21955;-81
2022/07/23 09:21:37;;;;;;;12.55;10.10;;;;;;;24.42;71.36;100476.27;1763536;80;21019;-81
2022/07/23 09:24:19;;;;;;;11.28;9.90;;;;;;;24.40;71.16;100483.59;1762732;80;21066;-81
2022/07/23 09:26:44;;;;;;;11.30;10.20;;;;;;;24.36;70.80;100496.94;1763890;80;21074;-81
2022/07/23 09:29:21;;;;;;;11.78;10.58;;;;;;;24.28;70.76;100504.84;1766456;80;21730;-81
2022/07/23 09:32:00;;;;;;;12.03;10.65;;;;;;;24.24;70.98;100512.80;1763743;80;22070;-80
2022/07/23 09:34:38;;;;;;;11.65;10.10;;;;;;;24.22;70.76;100504.92;1762251;80;21049;-81
2022/07/23 09:37:17;;;;;;;12.95;10.03;;;;;;;24.26;71.04;100506.31;1762543;80;21043;-81
2022/07/23 09:39:48;;;;;;;15.23;10.63;;;;;;;24.26;71.06;100504.13;1764607;80;21023;-81
2022/07/23 09:42:22;;;;;;;11.78;10.65;;;;;;;24.30;71.20;100508.70;1762736;80;21591;-81
2022/07/23 09:44:54;;;;;;;11.30;10.28;;;;;;;24.35;71.13;100510.45;1761466;80;21126;-80
2022/07/23 09:47:24;;;;;;;10.53;9.58;;;;;;;24.38;70.90;100506.98;1748725;81;21405;-80
2022/07/23 09:50:15;;;;;;;11.57;10.48;;;;;;;24.44;71.15;100501.58;1781729;80;21074;-80
2022/07/23 09:52:49;;;;;;;11.05;10.00;;;;;;;24.48;71.17;100492.28;1770332;80;21517;-79
2022/07/23 09:55:18;;;;;;;11.43;10.25;;;;;;;24.54;71.23;100488.18;1737168;81;21127;-79
2022/07/23 09:57:50;;;;;;;;;;;;;;;24.54;71.17;100489.02;1756841;81;21292;-80
2022/07/23 10:00:15;;;;;;;;;;;;;;;24.51;71.31;100479.09;1749911;81;20196;-81
2022/07/23 10:02:45;;;;;;;10.72;9.78;;;;;;;24.47;71.48;100480.73;1773362;80;20230;-79
2022/07/23 10:05:31;;;;;;;11.90;10.48;;;;;;;24.46;71.02;100485.72;1764018;80;21016;-80
2022/07/23 10:08:19;;;;;;;11.20;10.10;;;;;;;24.44;70.67;100486.84;1766212;80;21043;-79
2022/07/23 10:10:55;;;;;;;11.93;10.72;;;;;;;24.46;70.78;100484.87;1772628;80;21047;-79
2022/07/23 10:13:56;;;;;;;11.12;10.13;;;;;;;24.48;71.03;100489.61;1771916;80;21571;-79
2022/07/23 10:16:28;;;;;;;12.28;10.93;;;;;;;24.49;71.13;100490.78;1765707;79;21501;-80
2022/07/23 10:18:55;;;;;;;14.47;11.10;;;;;;;24.52;71.45;100495.01;1776775;80;21541;-79
2022/07/23 10:21:33;;;;;;;12.18;10.90;;;;;;;24.59;71.61;100488.09;1775006;80;21054;-80
2022/07/23 10:24:45;;;;;;;13.15;10.90;;;;;;;24.65;71.58;100480.80;1778711;80;22181;-79
2022/07/23 10:28:08;;;;;;;14.00;10.88;;;;;;;24.73;71.61;100489.97;1764178;80;21000;-80
2022/07/23 10:30:52;;;;;;;12.10;10.75;;;;;;;24.81;71.42;100488.73;1763674;81;20986;-79
2022/07/23 10:33:40;;;;;;;12.35;11.10;;;;;;;24.89;71.34;100491.53;1734482;81;21082;-80
2022/07/23 10:36:30;;;;;;;11.90;10.70;;;;;;;24.96;70.90;100485.07;1755211;80;21041;-79
2022/07/23 10:39:08;;;;;;;13.58;11.28;;;;;;;25.00;70.49;100484.64;1756333;80;21120;-80
2022/07/23 10:41:39;;;;;;;11.97;10.65;;;;;;;25.03;70.31;100482.16;1758777;80;21050;-80
2022/07/23 10:44:25;;;;;;;11.50;10.32;;;;;;;25.01;70.25;100482.30;1769066;80;20902;-78
2022/07/23 10:47:18;;;;;;;10.82;9.73;;;;;;;25.02;70.27;100487.16;1755566;80;21086;-79
2022/07/23 10:49:40;;;;;;;12.05;10.95;;;;;;;24.98;70.41;100485.27;1733665;81;21053;-78
2022/07/23 10:52:23;;;;;;;13.20;11.08;;;;;;;24.90;70.17;100497.23;1734313;81;21503;-79
2022/07/23 10:54:59;;;;;;;11.93;10.93;;;;;;;24.75;69.60;100516.98;1754985;80;21153;-79
2022/07/23 10:57:28;;;;;;;11.90;10.72;;;;;;;24.57;69.55;100520.88;1748312;80;21583;-82
2022/07/23 11:00:10;;;;;;;13.15;11.85;;;;;;;24.47;69.73;100522.73;1756427;80;21058;-79
2022/07/23 11:02:41;;;;;;;12.15;11.03;;;;;;;24.42;69.79;100514.27;1758968;81;21536;-78
2022/07/23 11:05:15;;;;;;;13.30;11.75;;;;;;;24.40;69.90;100510.88;1738393;81;21186;-79
2022/07/23 11:08:08;;;;;;;11.55;10.40;;;;;;;24.42;70.22;100511.09;1752883;80;21533;-80
2022/07/23 11:10:41;;;;;;;12.73;11.53;;;;;;;24.48;70.52;100510.54;1756097;80;21024;-78
2022/07/23 11:13:43;;;;;;;12.25;10.98;;;;;;;24.55;70.72;100512.13;1744263;81;21063;-77
2022/07/23 11:16:25;;;;;;;12.75;11.45;;;;;;;24.59;70.64;100508.70;1773984;80;21033;-78
2022/07/23 11:18:59;;;;;;;13.78;12.43;;;;;;;24.66;70.85;100507.10;1756042;80;21129;-78
2022/07/23 11:21:40;;;;;;;12.80;11.43;;;;;;;24.73;70.86;100509.56;1755174;80;20996;-77
2022/07/23 11:24:10;;;;;;;12.30;11.10;;;;;;;24.79;70.58;100508.98;1760494;81;20999;-76
2022/07/23 11:26:48;;;;;;;12.65;11.45;;;;;;;24.88;70.49;100504.56;1736876;81;21002;-77
2022/07/23 11:29:33;;;;;;;12.78;11.63;;;;;;;25.00;70.35;100506.09;1734867;81;21780;-76
2022/07/23 11:32:21;;;;;;;13.53;12.28;;;;;;;25.11;70.23;100511.26;1734275;81;21131;-78
2022/07/23 11:34:51;;;;;;;13.93;12.55;;;;;;;25.18;69.85;100508.84;1747925;81;21446;-79